createdAt,value
2022-08-30T00:00:09.906Z,36.17
2022-08-30T00:00:46.752Z,35.99
2022-08-30T00:01:27.619Z,36.39
2022-08-30T00:02:05.205Z,36.07
2022-08-30T00:02:42.907Z,36.02
2022-08-30T00:03:20.874Z,36.25
2022-08-30T00:03:58.069Z,36.17
2022-08-30T00:04:35.858Z,36.41
2022-08-30T00:05:13.926Z,36.20
2022-08-30T00:05:51.201Z,36.18
2022-08-30T00:06:28.548Z,36.21
2022-08-30T00:07:05.809Z,36.22
2022-08-30T00:07:43.421Z,36.32
2022-08-30T00:08:21.241Z,36.00
2022-08-30T00:08:59.071Z,36.20
2022-08-30T00:09:37.252Z,36.21
2022-08-30T00:10:15.922Z,36.27
2022-08-30T00:10:54.024Z,36.08
2022-08-30T00:11:34.095Z,36.21
2022-08-30T00:12:17.926Z,36.29
2022-08-30T00:13:04.265Z,36.27
2022-08-30T00:13:50.478Z,36.33
2022-08-30T00:14:34.718Z,36.35
2022-08-30T00:15:13.325Z,36.26
2022-08-30T00:15:50.802Z,36.45
2022-08-30T00:16:28.133Z,36.45
2022-08-30T00:17:05.155Z,36.39
2022-08-30T00:17:42.002Z,36.18
2022-08-30T00:18:19.139Z,36.27
2022-08-30T00:18:56.302Z,36.40
2022-08-30T00:19:33.189Z,36.30
2022-08-30T00:20:10.382Z,36.40
2022-08-30T00:20:48.535Z,36.41
2022-08-30T00:21:25.941Z,36.38
2022-08-30T00:22:03.372Z,36.34
2022-08-30T00:22:39.827Z,36.52
2022-08-30T00:23:17.052Z,36.63
2022-08-30T00:23:53.641Z,36.51
2022-08-30T00:24:30.859Z,36.71
2022-08-30T00:25:07.633Z,36.55
2022-08-30T00:25:45.333Z,36.54
2022-08-30T00:26:21.856Z,36.44
2022-08-30T00:26:59.802Z,36.37
2022-08-30T00:27:36.652Z,36.68
2022-08-30T00:28:14.263Z,36.41
2022-08-30T00:28:51.577Z,36.27
2022-08-30T00:29:29.149Z,36.41
2022-08-30T00:30:06.769Z,36.49
2022-08-30T00:30:43.924Z,36.44
2022-08-30T00:31:21.199Z,36.40
2022-08-30T00:32:00.178Z,36.33
2022-08-30T00:32:41.208Z,36.41
2022-08-30T00:33:22.960Z,36.51
2022-08-30T00:34:05.299Z,36.45
2022-08-30T00:34:48.220Z,36.25
2022-08-30T00:35:32.009Z,36.53
2022-08-30T00:36:14.109Z,36.61
2022-08-30T00:36:55.760Z,36.36
2022-08-30T00:37:38.586Z,36.58
2022-08-30T00:38:21.347Z,36.56
2022-08-30T00:39:06.097Z,36.25
2022-08-30T00:39:48.633Z,36.36
2022-08-30T00:40:35.608Z,36.51
2022-08-30T00:41:13.722Z,36.38
2022-08-30T00:41:51.165Z,36.59
2022-08-30T00:42:28.041Z,36.42
2022-08-30T00:43:06.755Z,36.33
2022-08-30T00:43:45.412Z,36.49
2022-08-30T00:44:22.361Z,36.41
2022-08-30T00:45:08.616Z,36.51
2022-08-30T00:45:47.031Z,36.70
2022-08-30T00:46:24.891Z,36.44
2022-08-30T00:47:02.233Z,36.54
2022-08-30T00:47:39.603Z,36.52
2022-08-30T00:48:17.093Z,36.53
2022-08-30T00:48:54.653Z,36.44
2022-08-30T00:49:32.158Z,36.68
2022-08-30T00:50:10.911Z,36.68
2022-08-30T00:50:50.239Z,36.35
2022-08-30T00:51:27.916Z,36.46
2022-08-30T00:52:09.186Z,36.55
2022-08-30T00:53:00.265Z,36.65
2022-08-30T00:53:45.111Z,36.62
2022-08-30T00:54:26.250Z,36.51
2022-08-30T00:55:03.087Z,36.51
2022-08-30T00:55:41.997Z,36.44
2022-08-30T00:56:20.567Z,36.50
2022-08-30T00:56:58.714Z,36.35
2022-08-30T00:57:35.508Z,36.46
2022-08-30T00:58:13.574Z,36.50
2022-08-30T00:58:51.581Z,36.65
2022-08-30T00:59:29.088Z,36.54
2022-08-30T01:00:06.097Z,36.39
2022-08-30T01:00:43.994Z,36.67
2022-08-30T01:01:21.976Z,36.68
2022-08-30T01:02:00.459Z,36.55
2022-08-30T01:02:37.387Z,36.49
2022-08-30T01:03:15.123Z,36.44
2022-08-30T01:03:52.311Z,36.65
2022-08-30T01:04:29.886Z,36.63
2022-08-30T01:05:06.715Z,36.58
2022-08-30T01:05:44.390Z,36.75
2022-08-30T01:06:23.048Z,36.56
2022-08-30T01:07:00.769Z,36.73
2022-08-30T01:07:38.032Z,36.69
2022-08-30T01:08:16.668Z,36.66
2022-08-30T01:08:57.035Z,36.77
2022-08-30T01:09:38.377Z,37.01
2022-08-30T01:10:19.749Z,36.96
2022-08-30T01:11:02.751Z,37.00
2022-08-30T01:11:46.083Z,36.88
2022-08-30T01:12:30.087Z,37.12
2022-08-30T01:13:16.717Z,36.87
2022-08-30T01:13:55.489Z,36.85
2022-08-30T01:14:33.779Z,36.86
2022-08-30T01:15:11.292Z,36.94
2022-08-30T01:15:48.637Z,36.88
2022-08-30T01:16:27.363Z,36.79
2022-08-30T01:17:04.695Z,36.90
2022-08-30T01:17:41.166Z,36.84
2022-08-30T01:18:18.604Z,36.90
2022-08-30T01:18:57.061Z,36.90
2022-08-30T01:20:21.187Z,37.02
2022-08-30T01:21:27.600Z,37.05
2022-08-30T01:22:13.776Z,36.95
2022-08-30T01:22:54.337Z,36.88
2022-08-30T01:23:42.339Z,36.88
2022-08-30T01:24:38.561Z,37.03
2022-08-30T01:25:35.002Z,37.04
2022-08-30T01:26:36.669Z,37.21
2022-08-30T01:31:53.025Z,37.40
2022-08-30T01:32:40.702Z,37.39
2022-08-30T01:33:27.108Z,37.43
2022-08-30T01:34:12.779Z,37.64
2022-08-30T01:34:59.722Z,37.62
2022-08-30T01:35:55.762Z,37.58
2022-08-30T01:36:48.264Z,37.50
2022-08-30T01:37:35.876Z,37.44
2022-08-30T01:38:24.252Z,37.47
2022-08-30T01:39:20.859Z,37.28
2022-08-30T01:40:14.650Z,37.56
2022-08-30T01:41:11.153Z,37.48
2022-08-30T01:42:09.390Z,37.40
2022-08-30T01:44:15.757Z,37.55
2022-08-30T01:46:10.615Z,37.52
2022-08-30T01:46:56.190Z,37.50
2022-08-30T01:47:39.908Z,37.54
2022-08-30T01:48:28.267Z,37.54
2022-08-30T01:49:17.328Z,37.67
2022-08-30T01:50:01.221Z,37.61
2022-08-30T01:50:49.478Z,37.23
2022-08-30T01:51:35.022Z,37.43
2022-08-30T01:52:20.390Z,37.59
2022-08-30T01:53:06.740Z,37.51
2022-08-30T01:53:56.195Z,37.47
2022-08-30T01:54:51.087Z,37.37
2022-08-30T01:55:48.704Z,37.55
2022-08-30T01:57:47.782Z,37.54
2022-08-30T01:58:43.503Z,37.68
2022-08-30T01:59:37.778Z,37.96
2022-08-30T02:00:32.150Z,37.85
2022-08-30T02:01:34.593Z,37.89
2022-08-30T02:03:51.765Z,37.82
2022-08-30T02:04:42.282Z,37.93
2022-08-30T02:05:28.179Z,37.91
2022-08-30T02:06:11.644Z,37.91
2022-08-30T02:06:57.611Z,37.70
2022-08-30T02:07:43.236Z,37.73
2022-08-30T02:08:29.921Z,38.08
2022-08-30T02:09:19.566Z,37.94
2022-08-30T02:10:08.765Z,37.97
2022-08-30T02:11:05.877Z,37.81
2022-08-30T02:13:21.021Z,38.04
2022-08-30T02:14:07.896Z,38.00
2022-08-30T02:14:52.161Z,38.01
2022-08-30T02:15:41.345Z,38.08
2022-08-30T02:16:29.992Z,38.09
2022-08-30T02:17:13.909Z,38.15
2022-08-30T02:18:02.411Z,37.95
2022-08-30T02:18:58.862Z,37.80
2022-08-30T02:19:55.209Z,38.01
2022-08-30T02:20:52.118Z,38.09
2022-08-30T02:24:01.577Z,38.10
2022-08-30T02:24:47.208Z,38.30
2022-08-30T02:25:33.407Z,38.11
2022-08-30T02:26:21.520Z,37.81
2022-08-30T02:27:07.687Z,38.09
2022-08-30T02:27:55.119Z,38.04
2022-08-30T02:28:49.605Z,38.25
2022-08-30T02:29:39.687Z,38.06
2022-08-30T02:30:36.041Z,38.22
2022-08-30T02:33:41.139Z,38.22
2022-08-30T02:34:42.912Z,38.35
2022-08-30T02:35:41.721Z,38.26
2022-08-30T02:37:50.624Z,38.39
2022-08-30T02:38:40.861Z,38.51
2022-08-30T02:39:26.261Z,38.38
2022-08-30T02:40:12.493Z,38.27
2022-08-30T02:40:58.658Z,38.09
2022-08-30T02:41:48.386Z,38.17
2022-08-30T02:42:34.032Z,37.94
2022-08-30T02:43:19.878Z,38.22
2022-08-30T02:44:06.640Z,38.26
2022-08-30T02:44:57.063Z,38.25
2022-08-30T02:45:54.609Z,37.95
2022-08-30T02:47:02.637Z,38.26
2022-08-30T02:50:09.319Z,38.23
2022-08-30T02:50:54.730Z,38.25
2022-08-30T02:51:40.328Z,38.34
2022-08-30T02:52:33.468Z,38.23
2022-08-30T02:53:23.296Z,38.35
2022-08-30T02:54:19.172Z,38.23
2022-08-30T02:55:12.964Z,38.49
2022-08-30T02:56:02.920Z,38.19
2022-08-30T02:56:56.829Z,38.31
2022-08-30T02:57:59.225Z,38.31
2022-08-30T02:59:15.097Z,38.30
2022-08-30T03:00:06.386Z,38.41
2022-08-30T03:01:01.898Z,38.55
2022-08-30T03:01:50.487Z,38.46
2022-08-30T03:02:38.609Z,38.51
2022-08-30T03:03:23.795Z,38.50
2022-08-30T03:04:09.408Z,38.45
2022-08-30T03:04:54.835Z,38.32
2022-08-30T03:05:40.234Z,38.45
2022-08-30T03:06:27.828Z,38.46
2022-08-30T03:07:17.214Z,38.43
2022-08-30T03:08:15.866Z,38.42
2022-08-30T03:15:56.157Z,38.61
2022-08-30T03:16:48.773Z,38.67
2022-08-30T03:17:39.143Z,38.54
2022-08-30T03:20:54.417Z,38.51
2022-08-30T03:21:38.164Z,38.43
2022-08-30T03:22:22.426Z,38.47
2022-08-30T03:23:09.243Z,38.64
2022-08-30T03:24:00.133Z,38.37
2022-08-30T03:24:47.578Z,38.46
2022-08-30T03:25:36.679Z,38.47
2022-08-30T03:28:53.305Z,38.55
2022-08-30T03:29:38.876Z,38.60
2022-08-30T03:30:23.342Z,38.55
2022-08-30T03:31:07.215Z,38.45
2022-08-30T03:31:52.595Z,38.65
2022-08-30T03:32:36.546Z,38.62
2022-08-30T03:33:23.725Z,38.60
2022-08-30T03:34:15.436Z,38.60
2022-08-30T03:35:06.578Z,38.82
2022-08-30T03:35:54.392Z,38.71
2022-08-30T03:36:51.871Z,38.57
2022-08-30T03:38:51.481Z,38.58
2022-08-30T03:42:51.941Z,38.48
2022-08-30T03:43:48.113Z,38.55
2022-08-30T03:44:45.712Z,38.50
2022-08-30T03:47:57.678Z,38.54
2022-08-30T03:48:47.916Z,38.66
2022-08-30T03:49:41.236Z,38.58
2022-08-30T03:50:34.933Z,38.69
2022-08-30T03:52:26.602Z,38.68
2022-08-30T03:53:13.586Z,38.37
2022-08-30T03:54:02.587Z,38.67
2022-08-30T03:57:06.406Z,38.67
2022-08-30T03:57:52.809Z,38.60
2022-08-30T03:58:39.310Z,38.48
2022-08-30T03:59:27.287Z,38.57
2022-08-30T04:00:13.658Z,38.65
2022-08-30T04:00:59.508Z,38.62
2022-08-30T04:01:45.251Z,38.68
2022-08-30T04:02:32.995Z,38.77
2022-08-30T04:04:55.363Z,38.43
2022-08-30T04:05:47.813Z,38.58
2022-08-30T04:06:36.843Z,38.47
2022-08-30T04:07:35.283Z,38.51
2022-08-30T04:08:29.639Z,38.56
2022-08-30T04:09:17.381Z,38.71
2022-08-30T04:10:07.298Z,38.73
2022-08-30T04:11:02.937Z,38.72
2022-08-30T04:14:43.894Z,38.70
2022-08-30T04:15:15.238Z,38.52
2022-08-30T04:15:46.702Z,38.66
2022-08-30T04:16:18.879Z,38.46
2022-08-30T04:16:50.327Z,38.52
2022-08-30T04:17:21.833Z,38.60
2022-08-30T04:17:53.554Z,38.57
2022-08-30T04:18:24.975Z,38.43
2022-08-30T04:18:56.372Z,38.54
2022-08-30T04:19:27.727Z,38.55
2022-08-30T04:19:59.288Z,38.56
2022-08-30T04:20:31.268Z,38.57
2022-08-30T04:21:03.023Z,38.50
2022-08-30T04:21:37.531Z,38.72
2022-08-30T04:22:14.646Z,38.69
2022-08-30T04:22:46.081Z,38.63
2022-08-30T04:23:17.539Z,38.61
2022-08-30T04:23:49.126Z,38.50
2022-08-30T04:24:20.516Z,38.65
2022-08-30T04:24:51.991Z,38.40
2022-08-30T04:25:23.443Z,38.56
2022-08-30T04:25:55.037Z,38.34
2022-08-30T04:26:27.645Z,38.57
2022-08-30T04:27:00.908Z,38.58
2022-08-30T04:27:32.380Z,38.43
2022-08-30T04:28:03.889Z,38.52
2022-08-30T04:28:35.287Z,38.46
2022-08-30T04:29:07.004Z,38.58
2022-08-30T04:29:38.440Z,38.58
2022-08-30T04:30:10.081Z,38.42
2022-08-30T04:30:41.859Z,38.52
2022-08-30T04:31:14.156Z,38.40
2022-08-30T04:31:46.906Z,38.56
2022-08-30T04:32:18.363Z,38.46
2022-08-30T04:32:49.973Z,38.45
2022-08-30T04:33:21.396Z,38.50
2022-08-30T04:33:52.948Z,38.59
2022-08-30T04:34:24.489Z,38.56
2022-08-30T04:34:58.322Z,38.57
2022-08-30T04:35:29.745Z,38.64
2022-08-30T04:36:01.939Z,38.67
2022-08-30T04:36:33.402Z,38.52
2022-08-30T04:37:04.828Z,38.51
2022-08-30T04:37:37.299Z,38.46
2022-08-30T04:38:08.720Z,38.54
2022-08-30T04:38:40.342Z,38.27
2022-08-30T04:39:11.761Z,38.43
2022-08-30T04:39:43.108Z,38.39
2022-08-30T04:40:14.578Z,38.40
2022-08-30T04:40:46.384Z,38.51
2022-08-30T04:41:18.341Z,38.40
2022-08-30T04:41:49.726Z,38.56
2022-08-30T04:42:21.132Z,38.46
2022-08-30T04:42:52.605Z,38.32
2022-08-30T04:43:24.441Z,38.50
2022-08-30T04:43:55.885Z,38.74
2022-08-30T04:44:27.412Z,38.57
2022-08-30T04:45:01.846Z,38.55
2022-08-30T04:45:33.391Z,38.67
2022-08-30T04:46:05.596Z,38.43
2022-08-30T04:46:37.027Z,38.46
2022-08-30T04:47:16.082Z,38.42
2022-08-30T04:47:47.501Z,38.43
2022-08-30T04:48:19.041Z,38.58
2022-08-30T04:48:50.437Z,38.50
2022-08-30T04:49:21.849Z,38.59
2022-08-30T04:49:53.409Z,38.60
2022-08-30T04:50:24.789Z,38.49
2022-08-30T04:50:56.168Z,38.38
2022-08-30T04:51:27.660Z,38.54
2022-08-30T04:51:59.078Z,38.30
2022-08-30T04:52:30.629Z,38.41
2022-08-30T04:53:02.199Z,38.43
2022-08-30T04:53:33.995Z,38.51
2022-08-30T04:54:05.622Z,38.51
2022-08-30T04:54:37.066Z,38.42
2022-08-30T04:55:08.717Z,38.49
2022-08-30T04:55:40.427Z,38.57
2022-08-30T04:56:13.443Z,38.51
2022-08-30T04:56:44.953Z,38.56
2022-08-30T04:57:16.309Z,38.55
2022-08-30T04:57:47.802Z,38.62
2022-08-30T04:58:19.228Z,38.63
2022-08-30T04:58:51.511Z,38.57
2022-08-30T04:59:23.147Z,38.64
2022-08-30T04:59:54.615Z,38.62
2022-08-30T05:00:26.003Z,38.59
2022-08-30T05:00:57.496Z,38.67
2022-08-30T05:01:29.601Z,38.52
2022-08-30T05:02:01.112Z,38.47
2022-08-30T05:02:32.631Z,38.24
2022-08-30T05:03:04.214Z,38.50
2022-08-30T05:03:35.610Z,38.52
2022-08-30T05:04:07.024Z,38.51
2022-08-30T05:04:38.468Z,38.46
2022-08-30T05:05:10.279Z,38.65
2022-08-30T05:05:49.008Z,38.37
2022-08-30T05:06:20.633Z,38.42
2022-08-30T05:06:52.072Z,38.48
2022-08-30T05:07:23.432Z,38.52
2022-08-30T05:07:55.510Z,38.48
2022-08-30T05:08:26.920Z,38.54
2022-08-30T05:08:58.331Z,38.50
2022-08-30T05:09:29.727Z,38.40
2022-08-30T05:10:01.124Z,38.42
2022-08-30T05:10:32.539Z,38.52
2022-08-30T05:11:04.447Z,38.47
2022-08-30T05:11:35.874Z,38.35
2022-08-30T05:12:07.374Z,38.56
2022-08-30T05:12:39.134Z,38.57
2022-08-30T05:13:10.860Z,38.31
2022-08-30T05:13:42.765Z,38.41
2022-08-30T05:14:14.195Z,38.57
2022-08-30T05:14:45.673Z,38.61
2022-08-30T05:15:17.169Z,38.45
2022-08-30T05:15:48.632Z,38.34
2022-08-30T05:16:20.247Z,38.47
2022-08-30T05:16:51.674Z,38.46
2022-08-30T05:17:23.214Z,38.36
2022-08-30T05:17:54.622Z,38.56
2022-08-30T05:18:26.195Z,38.42
2022-08-30T05:18:57.565Z,38.50
2022-08-30T05:19:31.236Z,38.43
2022-08-30T05:20:02.709Z,38.52
2022-08-30T05:20:34.328Z,38.50
2022-08-30T05:21:09.683Z,38.47
2022-08-30T05:21:41.229Z,38.54
2022-08-30T05:22:12.815Z,38.45
2022-08-30T05:22:44.341Z,38.38
2022-08-30T05:23:15.946Z,38.51
2022-08-30T05:23:47.526Z,38.41
2022-08-30T05:24:19.163Z,38.47
2022-08-30T05:24:50.530Z,38.39
2022-08-30T05:25:23.095Z,38.39
2022-08-30T05:25:54.533Z,38.45
2022-08-30T05:26:26.840Z,38.61
2022-08-30T05:26:58.619Z,38.32
2022-08-30T05:27:30.006Z,38.57
2022-08-30T05:28:01.443Z,38.52
2022-08-30T05:28:33.082Z,38.56
2022-08-30T05:29:04.545Z,38.39
2022-08-30T05:29:35.913Z,38.45
2022-08-30T05:30:07.647Z,38.61
2022-08-30T05:30:39.020Z,38.61
2022-08-30T05:31:17.464Z,38.39
2022-08-30T05:31:48.946Z,38.50
2022-08-30T05:32:20.438Z,38.45
2022-08-30T05:32:52.469Z,38.49
2022-08-30T05:33:24.060Z,38.54
2022-08-30T05:33:55.567Z,38.51
2022-08-30T05:34:28.472Z,38.47
2022-08-30T05:34:59.919Z,38.47
2022-08-30T05:35:31.404Z,38.48
2022-08-30T05:36:05.617Z,38.39
2022-08-30T05:36:37.098Z,38.47
2022-08-30T05:37:08.482Z,38.35
2022-08-30T05:37:39.837Z,38.25
2022-08-30T05:38:11.203Z,38.35
2022-08-30T05:38:43.079Z,38.53
2022-08-30T05:39:15.525Z,38.58
2022-08-30T05:39:52.417Z,38.26
2022-08-30T05:40:26.923Z,38.41
2022-08-30T05:41:01.729Z,38.48
2022-08-30T05:41:36.975Z,38.50
2022-08-30T05:42:08.444Z,38.78
2022-08-30T05:42:39.874Z,38.44
2022-08-30T05:43:11.237Z,38.27
2022-08-30T05:43:42.609Z,38.33
2022-08-30T05:44:13.980Z,38.41
2022-08-30T05:44:45.568Z,38.39
2022-08-30T05:45:17.229Z,38.44
2022-08-30T05:45:48.649Z,38.38
2022-08-30T05:46:20.191Z,38.23
2022-08-30T05:46:51.817Z,38.41
2022-08-30T05:47:23.336Z,38.43
2022-08-30T05:47:54.713Z,38.43
2022-08-30T05:48:26.302Z,38.31
2022-08-30T05:48:57.749Z,38.50
2022-08-30T05:49:29.179Z,38.35
2022-08-30T05:50:00.637Z,38.54
2022-08-30T05:50:33.386Z,38.40
2022-08-30T05:51:06.537Z,38.37
2022-08-30T05:51:43.269Z,38.47
2022-08-30T05:52:15.158Z,38.50
2022-08-30T05:52:46.818Z,38.40
2022-08-30T05:53:18.213Z,38.48
2022-08-30T05:53:49.744Z,38.45
2022-08-30T05:54:21.407Z,38.42
2022-08-30T05:54:53.474Z,38.51
2022-08-30T05:55:24.966Z,38.63
2022-08-30T05:55:56.336Z,38.34
2022-08-30T05:56:28.612Z,38.38
2022-08-30T05:57:00.018Z,38.44
2022-08-30T05:57:32.261Z,38.44
2022-08-30T05:58:03.654Z,38.41
2022-08-30T05:58:35.034Z,38.54
2022-08-30T05:59:06.695Z,38.53
2022-08-30T05:59:38.313Z,38.67
2022-08-30T06:00:11.451Z,38.48
2022-08-30T06:00:43.041Z,38.50
2022-08-30T06:01:23.214Z,38.46
2022-08-30T06:01:56.219Z,38.63
2022-08-30T06:02:27.650Z,38.50
2022-08-30T06:02:59.115Z,38.63
2022-08-30T06:03:30.523Z,38.53
2022-08-30T06:04:04.196Z,38.75
2022-08-30T06:04:35.777Z,38.54
2022-08-30T06:05:07.379Z,38.60
2022-08-30T06:05:39.139Z,38.61
2022-08-30T06:06:10.617Z,38.62
2022-08-30T06:06:42.453Z,38.67
2022-08-30T06:07:15.830Z,38.71
2022-08-30T06:07:48.617Z,38.50
2022-08-30T06:08:20.161Z,38.65
2022-08-30T06:08:51.543Z,38.66
2022-08-30T06:09:23.131Z,38.70
2022-08-30T06:09:54.522Z,38.52
2022-08-30T06:10:25.893Z,38.66
2022-08-30T06:10:57.275Z,38.61
2022-08-30T06:11:28.736Z,38.72
2022-08-30T06:12:00.110Z,38.70
2022-08-30T06:12:31.496Z,38.73
2022-08-30T06:13:02.868Z,38.69
2022-08-30T06:13:34.326Z,38.81
2022-08-30T06:14:05.738Z,38.81
2022-08-30T06:14:37.338Z,38.78
2022-08-30T06:15:09.162Z,38.70
2022-08-30T06:15:40.694Z,38.92
2022-08-30T06:16:12.687Z,38.63
2022-08-30T06:16:44.233Z,38.77
2022-08-30T06:17:15.605Z,38.69
2022-08-30T06:17:47.519Z,38.78
2022-08-30T06:18:18.939Z,38.77
2022-08-30T06:19:00.278Z,38.98
2022-08-30T06:19:31.771Z,38.96
2022-08-30T06:20:03.507Z,38.99
2022-08-30T06:20:38.998Z,38.87
2022-08-30T06:21:24.048Z,38.78
2022-08-30T06:21:55.493Z,38.77
2022-08-30T06:22:26.881Z,38.93
2022-08-30T06:22:58.342Z,38.88
2022-08-30T06:23:29.749Z,38.80
2022-08-30T06:24:01.239Z,38.66
2022-08-30T06:24:55.939Z,39.09
2022-08-30T06:25:26.980Z,38.98
2022-08-30T06:26:12.847Z,39.02
2022-08-30T06:26:44.655Z,38.88
2022-08-30T06:27:16.120Z,39.06
2022-08-30T06:27:47.691Z,38.97
2022-08-30T06:28:19.302Z,38.97
2022-08-30T06:28:50.823Z,38.93
2022-08-30T06:29:22.292Z,38.82
2022-08-30T06:29:53.793Z,39.06
2022-08-30T06:30:25.188Z,38.98
2022-08-30T06:30:56.621Z,39.14
2022-08-30T06:31:28.072Z,38.92
2022-08-30T06:31:59.506Z,39.04
2022-08-30T06:32:30.879Z,38.95
2022-08-30T06:33:02.309Z,38.81
2022-08-30T06:33:33.934Z,39.20
2022-08-30T06:34:05.329Z,38.82
2022-08-30T06:34:36.882Z,39.02
2022-08-30T06:35:08.392Z,39.12
2022-08-30T06:35:56.665Z,39.04
2022-08-30T06:36:30.192Z,39.16
2022-08-30T06:37:01.578Z,38.98
2022-08-30T06:37:33.399Z,39.07
2022-08-30T06:38:04.864Z,39.37
2022-08-30T06:38:36.379Z,39.40
2022-08-30T06:39:07.800Z,39.30
2022-08-30T06:39:39.247Z,39.27
2022-08-30T06:40:10.954Z,39.50
2022-08-30T06:40:42.483Z,39.41
2022-08-30T06:41:14.790Z,39.33
2022-08-30T06:41:46.355Z,39.50
2022-08-30T06:42:17.982Z,39.40
2022-08-30T06:42:49.452Z,39.34
2022-08-30T06:43:20.845Z,39.23
2022-08-30T06:43:52.268Z,39.42
2022-08-30T06:44:26.040Z,39.49
2022-08-30T06:44:59.761Z,39.52
2022-08-30T06:45:31.110Z,39.59
2022-08-30T06:46:03.996Z,39.61
2022-08-30T06:46:35.988Z,39.46
2022-08-30T06:47:07.431Z,39.60
2022-08-30T06:47:39.300Z,39.53
2022-08-30T06:48:10.675Z,39.56
2022-08-30T06:48:43.108Z,39.41
2022-08-30T06:49:16.582Z,39.55
2022-08-30T06:49:47.993Z,39.34
2022-08-30T06:50:19.406Z,39.57
2022-08-30T06:50:53.968Z,39.50
2022-08-30T06:51:26.657Z,39.68
2022-08-30T06:51:58.059Z,39.39
2022-08-30T06:52:29.748Z,39.52
2022-08-30T06:53:02.757Z,39.58
2022-08-30T06:53:34.475Z,39.83
2022-08-30T06:54:06.132Z,39.63
2022-08-30T06:54:42.241Z,39.75
2022-08-30T06:55:14.417Z,39.53
2022-08-30T06:55:45.832Z,39.65
2022-08-30T06:56:17.322Z,39.80
2022-08-30T06:56:58.165Z,39.81
2022-08-30T06:57:30.209Z,39.69
2022-08-30T06:58:01.857Z,39.76
2022-08-30T06:58:33.379Z,40.03
2022-08-30T06:59:05.028Z,39.73
2022-08-30T06:59:36.371Z,39.93
2022-08-30T07:00:08.800Z,39.83
2022-08-30T07:00:40.292Z,39.79
2022-08-30T07:01:12.794Z,39.86
2022-08-30T07:01:44.260Z,39.84
2022-08-30T07:02:16.250Z,40.02
2022-08-30T07:02:47.817Z,39.85
2022-08-30T07:03:19.381Z,39.91
2022-08-30T07:03:50.946Z,39.82
2022-08-30T07:04:22.764Z,40.06
2022-08-30T07:04:54.235Z,39.98
2022-08-30T07:05:25.690Z,40.04
2022-08-30T07:05:57.125Z,39.94
2022-08-30T07:06:28.658Z,40.08
2022-08-30T07:07:00.034Z,40.30
2022-08-30T07:07:31.452Z,40.07
2022-08-30T07:08:02.992Z,40.02
2022-08-30T07:08:34.373Z,39.93
2022-08-30T07:09:05.825Z,39.92
2022-08-30T07:09:37.161Z,40.01
2022-08-30T07:10:08.729Z,40.14
2022-08-30T07:10:40.496Z,40.01
2022-08-30T07:11:11.948Z,39.70
2022-08-30T07:11:43.411Z,39.86
2022-08-30T07:12:14.940Z,39.96
2022-08-30T07:12:46.335Z,40.03
2022-08-30T07:13:17.969Z,39.89
2022-08-30T07:13:49.437Z,40.01
2022-08-30T07:14:21.190Z,39.92
2022-08-30T07:14:52.585Z,40.08
2022-08-30T07:15:24.222Z,40.21
2022-08-30T07:15:55.714Z,40.19
2022-08-30T07:16:27.293Z,40.12
2022-08-30T07:16:59.000Z,40.11
2022-08-30T07:17:34.512Z,40.50
2022-08-30T07:18:06.389Z,40.36
2022-08-30T07:18:37.815Z,40.57
2022-08-30T07:19:09.324Z,40.05
2022-08-30T07:19:51.803Z,40.38
2022-08-30T07:20:23.390Z,40.27
2022-08-30T07:20:54.907Z,40.33
2022-08-30T07:21:29.940Z,40.31
2022-08-30T07:22:01.363Z,40.37
2022-08-30T07:22:33.315Z,40.59
2022-08-30T07:23:04.753Z,40.64
2022-08-30T07:23:36.176Z,40.24
2022-08-30T07:24:08.932Z,40.32
2022-08-30T07:26:06.693Z,40.44
2022-08-30T07:26:58.695Z,40.50
2022-08-30T07:27:52.053Z,40.35
2022-08-30T07:36:05.246Z,40.81
2022-08-30T07:36:55.584Z,40.84
2022-08-30T07:37:48.597Z,40.86
2022-08-30T07:38:43.419Z,40.85
2022-08-30T07:39:41.669Z,40.87
2022-08-30T07:43:43.695Z,40.81
2022-08-30T07:44:23.139Z,40.73
2022-08-30T07:45:01.385Z,40.83
2022-08-30T07:45:38.145Z,40.76
2022-08-30T07:46:14.735Z,40.64
2022-08-30T07:46:51.304Z,40.76
2022-08-30T07:47:28.146Z,40.90
2022-08-30T07:48:05.186Z,41.02
2022-08-30T07:48:41.982Z,40.94
2022-08-30T07:49:21.356Z,40.77
2022-08-30T07:50:00.156Z,40.82
2022-08-30T07:50:40.348Z,40.71
2022-08-30T07:51:30.356Z,40.96
2022-08-30T07:52:13.916Z,40.81
2022-08-30T07:52:51.945Z,40.76
2022-08-30T07:53:28.293Z,41.03
2022-08-30T07:54:05.231Z,40.75
2022-08-30T07:54:42.467Z,40.78
2022-08-30T07:55:19.186Z,40.76
2022-08-30T07:55:56.896Z,40.95
2022-08-30T07:56:34.479Z,40.77
2022-08-30T07:57:12.061Z,41.00
2022-08-30T07:57:52.759Z,40.80
2022-08-30T07:58:29.744Z,40.77
2022-08-30T07:59:06.540Z,40.65
2022-08-30T07:59:43.151Z,40.57
2022-08-30T08:00:19.991Z,41.02
2022-08-30T08:00:58.351Z,40.95
2022-08-30T08:01:35.134Z,40.76
2022-08-30T08:02:12.851Z,41.02
2022-08-30T08:02:51.257Z,40.78
2022-08-30T08:03:28.334Z,41.18
2022-08-30T08:04:05.332Z,40.98
2022-08-30T08:04:42.428Z,41.18
2022-08-30T08:05:22.053Z,41.08
2022-08-30T08:06:01.694Z,41.14
2022-08-30T08:06:41.828Z,40.89
2022-08-30T08:07:27.784Z,40.78
2022-08-30T08:08:15.151Z,40.96
2022-08-30T08:08:53.239Z,41.06
2022-08-30T08:09:31.473Z,41.21
2022-08-30T08:10:12.219Z,41.10
2022-08-30T08:10:49.913Z,41.04
2022-08-30T08:11:30.396Z,41.05
2022-08-30T08:12:09.088Z,40.92
2022-08-30T08:12:46.647Z,40.95
2022-08-30T08:13:24.459Z,41.18
2022-08-30T08:14:04.761Z,41.30
2022-08-30T08:14:41.917Z,41.35
2022-08-30T08:15:18.545Z,41.00
2022-08-30T08:15:56.925Z,41.09
2022-08-30T08:16:33.531Z,41.20
2022-08-30T08:17:11.448Z,40.77
2022-08-30T08:17:48.217Z,41.04
2022-08-30T08:18:26.366Z,41.01
2022-08-30T08:19:04.871Z,41.00
2022-08-30T08:19:41.667Z,41.34
2022-08-30T08:20:18.730Z,41.22
2022-08-30T08:20:56.946Z,41.26
2022-08-30T08:21:33.670Z,41.12
2022-08-30T08:22:21.027Z,41.46
2022-08-30T08:22:58.063Z,41.16
2022-08-30T08:23:35.589Z,41.30
2022-08-30T08:24:12.265Z,41.52
2022-08-30T08:24:49.374Z,41.25
2022-08-30T08:25:26.692Z,41.14
2022-08-30T08:26:03.799Z,41.36
2022-08-30T08:26:41.134Z,41.35
2022-08-30T08:27:21.739Z,41.46
2022-08-30T08:27:59.560Z,41.57
2022-08-30T08:28:37.445Z,41.35
2022-08-30T08:29:14.667Z,41.61
2022-08-30T08:29:51.273Z,41.40
2022-08-30T08:30:28.068Z,41.48
2022-08-30T08:31:04.535Z,41.31
2022-08-30T08:31:41.254Z,41.66
2022-08-30T08:32:17.894Z,41.53
2022-08-30T08:32:54.875Z,41.72
2022-08-30T08:33:31.945Z,41.84
2022-08-30T08:34:10.130Z,41.59
2022-08-30T08:34:47.183Z,41.66
2022-08-30T08:35:24.144Z,41.62
2022-08-30T08:36:00.719Z,41.78
2022-08-30T08:36:38.115Z,41.63
2022-08-30T08:37:15.226Z,41.86
2022-08-30T08:37:51.604Z,42.08
2022-08-30T08:38:28.253Z,41.67
2022-08-30T08:39:06.129Z,41.80
2022-08-30T08:39:43.605Z,41.75
2022-08-30T08:40:20.880Z,42.20
2022-08-30T08:41:15.044Z,42.02
2022-08-30T08:42:10.207Z,41.81
2022-08-30T08:42:48.912Z,42.10
2022-08-30T08:43:26.345Z,42.15
2022-08-30T08:44:13.404Z,42.22
2022-08-30T08:45:11.742Z,42.03
2022-08-30T08:46:09.661Z,41.98
2022-08-30T08:47:19.627Z,42.28
2022-08-30T08:48:32.122Z,42.15
2022-08-30T08:49:39.985Z,42.21
2022-08-30T08:50:34.561Z,41.94
2022-08-30T08:51:29.526Z,41.97
2022-08-30T08:52:52.981Z,42.30
2022-08-30T08:53:47.867Z,42.19
2022-08-30T08:55:50.567Z,42.27
2022-08-30T08:56:51.822Z,42.52
2022-08-30T08:57:40.737Z,42.33
2022-08-30T08:58:30.914Z,42.49
2022-08-30T08:59:20.751Z,42.43
2022-08-30T09:00:06.974Z,42.60
2022-08-30T09:00:52.935Z,42.18
2022-08-30T09:01:38.703Z,42.31
2022-08-30T09:02:27.576Z,42.45
2022-08-30T09:03:18.376Z,42.47
2022-08-30T09:04:07.745Z,42.42
2022-08-30T09:05:05.726Z,42.62
2022-08-30T09:05:52.828Z,42.59
2022-08-30T09:06:54.550Z,42.39
2022-08-30T09:11:07.641Z,42.44
2022-08-30T09:13:22.874Z,42.41
2022-08-30T09:14:12.145Z,42.75
2022-08-30T09:15:09.038Z,42.71
2022-08-30T09:15:56.163Z,42.70
2022-08-30T09:21:47.106Z,43.03
2022-08-30T09:22:53.644Z,42.91
2022-08-30T09:24:11.795Z,42.95
2022-08-30T09:25:01.581Z,43.00
2022-08-30T09:25:50.503Z,42.97
2022-08-30T09:26:39.582Z,43.13
2022-08-30T09:27:22.216Z,42.89
2022-08-30T09:28:16.596Z,43.06
2022-08-30T09:29:03.168Z,42.92
2022-08-30T09:29:55.347Z,42.87
2022-08-30T09:30:47.900Z,42.95
2022-08-30T09:32:24.856Z,42.85